Terminal Aerodrome Forecast
Issued by NWS Wakefield, VA

Home | Current Version | Previous Version | Text Only | Print | Product List | Glossary On
Versions: 1 2 3 4 5 6 7 8 9 10 11 12 13 14 15 16 17
000
FTUS41 KAKQ 291738
TAFECG
TAF
KECG 291738Z 2918/3018 10008KT P6SM SKC
     FM292200 13006KT P6SM SCT035
     FM300400 16005KT P6SM SKC
     FM301600 13007KT P6SM FEW035=

USA.gov is the U.S. government's official web portal to all federal, state and local government web resources and services.